createdAt,value
2018-02-15T00:00:46.444Z,10.90
2018-02-15T00:03:12.864Z,11.00
2018-02-15T00:05:39.276Z,10.23
2018-02-15T00:08:05.633Z,11.07
2018-02-15T00:10:39.121Z,10.97
2018-02-15T00:13:05.497Z,11.00
2018-02-15T00:15:31.862Z,11.07
2018-02-15T00:17:58.287Z,10.43
2018-02-15T00:20:24.632Z,9.50
2018-02-15T00:22:51.045Z,10.03
2018-02-15T00:25:17.424Z,11.47
2018-02-15T00:27:43.796Z,10.40
2018-02-15T00:30:10.182Z,10.17
2018-02-15T00:32:36.580Z,10.57
2018-02-15T00:35:02.970Z,10.77
2018-02-15T00:37:29.321Z,10.47
2018-02-15T00:39:55.684Z,10.73
2018-02-15T00:42:22.070Z,10.63
2018-02-15T00:44:48.448Z,10.77
2018-02-15T00:47:14.870Z,10.20
2018-02-15T00:49:41.257Z,10.97
2018-02-15T00:52:07.641Z,11.00
2018-02-15T00:54:33.980Z,10.10
2018-02-15T00:57:00.341Z,10.73
2018-02-15T00:59:26.773Z,9.80
2018-02-15T01:01:53.122Z,10.00
2018-02-15T01:04:19.516Z,10.37
2018-02-15T01:06:45.954Z,10.80
2018-02-15T01:09:12.500Z,10.77
2018-02-15T01:11:38.885Z,10.43
2018-02-15T01:14:05.412Z,11.27
2018-02-15T01:16:31.816Z,10.10
2018-02-15T01:18:58.209Z,10.47
2018-02-15T01:21:24.559Z,11.63
2018-02-15T01:23:50.944Z,12.60
2018-02-15T01:26:17.389Z,12.37
2018-02-15T01:28:43.752Z,13.70
2018-02-15T01:31:10.100Z,14.77
2018-02-15T01:33:36.483Z,14.70
2018-02-15T01:36:03.026Z,14.57
2018-02-15T01:38:29.396Z,13.67
2018-02-15T01:40:55.740Z,14.13
2018-02-15T01:43:22.108Z,13.97
2018-02-15T01:45:48.491Z,15.17
2018-02-15T01:48:14.937Z,14.43
2018-02-15T01:50:41.305Z,14.50
2018-02-15T01:53:07.633Z,13.40
2018-02-15T01:55:34.038Z,15.03
2018-02-15T01:58:00.412Z,14.20
2018-02-15T02:00:26.866Z,14.60
2018-02-15T02:02:53.312Z,14.20
2018-02-15T02:05:19.701Z,14.90
2018-02-15T02:07:46.132Z,13.60
2018-02-15T02:10:12.523Z,13.37
2018-02-15T02:12:38.869Z,12.97
2018-02-15T02:15:05.224Z,14.23
2018-02-15T02:17:31.605Z,14.37
2018-02-15T02:19:58.288Z,13.17
2018-02-15T02:22:24.628Z,13.73
2018-02-15T02:24:51.020Z,13.20
2018-02-15T02:27:17.361Z,13.43
2018-02-15T02:29:43.720Z,13.27
2018-02-15T02:32:10.068Z,15.13
2018-02-15T02:34:36.409Z,13.13
2018-02-15T02:37:02.800Z,14.60
2018-02-15T02:39:29.147Z,13.87
2018-02-15T02:41:55.495Z,14.50
2018-02-15T02:44:21.902Z,14.17
2018-02-15T02:46:48.269Z,13.50
2018-02-15T02:49:14.621Z,14.20
2018-02-15T02:51:40.973Z,14.67
2018-02-15T02:54:07.924Z,15.53
2018-02-15T02:56:34.383Z,13.83
2018-02-15T02:59:00.785Z,15.43
2018-02-15T03:01:27.144Z,14.43
2018-02-15T03:03:53.481Z,15.50
2018-02-15T03:06:19.853Z,14.30
2018-02-15T03:08:46.273Z,14.63
2018-02-15T03:11:12.621Z,14.27
2018-02-15T03:13:38.961Z,15.37
2018-02-15T03:16:05.311Z,14.93
2018-02-15T03:18:31.746Z,15.10
2018-02-15T03:20:58.100Z,15.57
2018-02-15T03:23:24.451Z,15.40
2018-02-15T03:25:50.824Z,15.80
2018-02-15T03:28:17.197Z,15.23
2018-02-15T03:30:43.525Z,15.57
2018-02-15T03:33:09.920Z,15.63
2018-02-15T03:35:36.265Z,16.33
2018-02-15T03:38:02.640Z,16.73
2018-02-15T03:40:29.013Z,16.73
2018-02-15T03:42:55.381Z,17.00
2018-02-15T03:45:21.708Z,17.20
2018-02-15T03:47:48.125Z,17.00
2018-02-15T03:50:14.606Z,16.40
2018-02-15T03:52:41.037Z,17.47
2018-02-15T03:55:07.445Z,17.47
2018-02-15T03:57:33.992Z,17.73
2018-02-15T04:00:00.337Z,17.33
2018-02-15T04:02:26.744Z,18.47
2018-02-15T04:04:53.209Z,17.87
2018-02-15T04:07:19.670Z,18.63
2018-02-15T04:09:46.174Z,17.80
2018-02-15T04:12:12.857Z,18.00
2018-02-15T04:14:39.429Z,17.50
2018-02-15T04:17:05.985Z,18.37
2018-02-15T04:19:32.366Z,16.43
2018-02-15T04:21:58.742Z,18.07
2018-02-15T04:24:25.189Z,18.30
2018-02-15T04:26:51.593Z,18.17
2018-02-15T04:29:17.945Z,18.03
2018-02-15T04:31:44.457Z,17.93
2018-02-15T04:34:10.850Z,17.50
2018-02-15T04:36:37.183Z,18.83
2018-02-15T04:39:03.672Z,19.00
2018-02-15T04:41:30.089Z,19.73
2018-02-15T04:43:56.504Z,18.80
2018-02-15T04:46:22.913Z,17.47
2018-02-15T04:48:49.243Z,17.90
2018-02-15T04:51:15.625Z,19.13
2018-02-15T04:53:42.065Z,18.40
2018-02-15T04:56:08.466Z,18.60
2018-02-15T04:58:34.849Z,17.87
2018-02-15T05:01:01.209Z,17.17
2018-02-15T05:03:27.596Z,19.20
2018-02-15T05:05:54.033Z,20.00
2018-02-15T05:08:20.508Z,17.87
2018-02-15T05:10:46.841Z,18.60
2018-02-15T05:13:13.176Z,18.83
2018-02-15T05:15:39.604Z,19.00
2018-02-15T05:18:06.075Z,19.63
2018-02-15T05:20:32.428Z,20.57
2018-02-15T05:22:58.916Z,22.53
2018-02-15T05:25:25.268Z,23.37
2018-02-15T05:27:51.604Z,21.70
2018-02-15T05:30:17.958Z,21.60
2018-02-15T05:32:44.415Z,22.90
2018-02-15T05:35:10.845Z,27.83
2018-02-15T05:37:37.189Z,28.70
2018-02-15T05:40:03.567Z,27.73
2018-02-15T05:42:30.128Z,28.23
2018-02-15T05:44:56.502Z,27.37
2018-02-15T05:47:22.845Z,23.47
2018-02-15T05:49:49.252Z,26.60
2018-02-15T05:52:15.586Z,27.17
2018-02-15T05:54:41.918Z,25.73
2018-02-15T05:57:08.293Z,22.53
2018-02-15T05:59:34.721Z,22.17
2018-02-15T06:02:01.226Z,20.73
2018-02-15T06:04:27.569Z,20.77
2018-02-15T06:06:54.004Z,21.17
2018-02-15T06:09:20.480Z,23.87
2018-02-15T06:11:47.042Z,21.70
2018-02-15T06:14:13.481Z,21.30
2018-02-15T06:16:39.869Z,22.33
2018-02-15T06:19:06.625Z,21.83
2018-02-15T06:21:32.981Z,21.67
2018-02-15T06:23:59.477Z,21.80
2018-02-15T06:26:29.744Z,19.70
2018-02-15T06:28:56.092Z,19.00
2018-02-15T06:31:22.783Z,17.80
2018-02-15T06:33:49.152Z,16.10
2018-02-15T06:36:15.768Z,17.60
2018-02-15T06:38:42.195Z,17.23
2018-02-15T06:41:08.525Z,16.97
2018-02-15T06:43:34.881Z,18.47
2018-02-15T06:46:01.326Z,17.90
2018-02-15T06:48:27.828Z,17.90
2018-02-15T06:50:54.307Z,15.20
2018-02-15T06:53:20.695Z,15.43
2018-02-15T06:55:47.040Z,14.60
2018-02-15T06:58:13.591Z,16.23
2018-02-15T07:00:40.037Z,14.60
2018-02-15T07:03:06.400Z,18.20
2018-02-15T07:05:32.757Z,16.17
2018-02-15T07:07:59.090Z,19.80
2018-02-15T07:10:25.873Z,18.37
2018-02-15T07:12:52.261Z,16.97
2018-02-15T07:15:18.801Z,17.30
2018-02-15T07:17:45.196Z,18.77
2018-02-15T07:20:11.742Z,18.27
2018-02-15T07:22:38.093Z,17.33
2018-02-15T07:25:04.826Z,18.77
2018-02-15T07:27:31.202Z,18.63
2018-02-15T07:29:57.529Z,18.30
2018-02-15T07:32:23.933Z,17.77
2018-02-15T07:34:50.264Z,19.77
2018-02-15T07:37:16.593Z,18.97
2018-02-15T07:39:43.001Z,18.53
2018-02-15T07:42:09.346Z,18.53
2018-02-15T07:44:35.721Z,16.47
2018-02-15T07:47:02.269Z,18.33
2018-02-15T07:49:28.684Z,18.90
2018-02-15T07:51:55.105Z,18.17
2018-02-15T07:54:21.586Z,16.50
2018-02-15T07:56:47.971Z,16.20
2018-02-15T07:59:14.356Z,17.47
2018-02-15T08:01:40.905Z,16.80
2018-02-15T08:04:07.276Z,18.00
2018-02-15T08:06:33.688Z,17.83
2018-02-15T08:09:00.048Z,17.80
2018-02-15T08:11:26.377Z,18.23
2018-02-15T08:13:52.982Z,16.10
2018-02-15T08:16:19.358Z,16.03
2018-02-15T08:18:45.764Z,17.53
2018-02-15T08:21:12.177Z,16.90
2018-02-15T08:23:38.571Z,15.60
2018-02-15T08:26:05.032Z,16.00
2018-02-15T08:28:31.582Z,16.67
2018-02-15T08:30:57.917Z,15.87
2018-02-15T08:33:24.270Z,17.33
2018-02-15T08:35:50.711Z,15.60
2018-02-15T08:38:17.049Z,15.27
2018-02-15T08:40:43.413Z,16.13
2018-02-15T08:43:09.789Z,14.33
2018-02-15T08:45:36.153Z,13.50
2018-02-15T08:48:02.582Z,12.47
2018-02-15T08:50:28.948Z,13.10
2018-02-15T08:52:55.382Z,13.33
2018-02-15T08:55:21.732Z,12.97
2018-02-15T08:57:48.090Z,14.23
2018-02-15T09:00:14.456Z,14.87
2018-02-15T09:02:40.812Z,17.17
2018-02-15T09:05:07.192Z,16.30
2018-02-15T09:07:33.818Z,17.07
2018-02-15T09:10:00.208Z,16.90
2018-02-15T09:12:26.637Z,16.73
2018-02-15T09:14:53.034Z,13.33
2018-02-15T09:17:19.458Z,14.53
2018-02-15T09:19:45.822Z,14.17
2018-02-15T09:22:12.209Z,12.83
2018-02-15T09:24:38.609Z,13.90
2018-02-15T09:27:04.956Z,13.40
2018-02-15T09:29:31.382Z,14.87
2018-02-15T09:31:57.723Z,13.50
2018-02-15T09:34:24.130Z,14.27
2018-02-15T09:36:50.482Z,15.20
2018-02-15T09:39:17.243Z,14.07
2018-02-15T09:41:43.769Z,14.13
2018-02-15T09:44:10.118Z,15.17
2018-02-15T09:46:36.565Z,18.73
2018-02-15T09:49:03.131Z,14.80
2018-02-15T09:51:29.500Z,16.03
2018-02-15T09:53:56.201Z,15.73
2018-02-15T09:56:22.585Z,14.40
2018-02-15T09:58:49.005Z,16.67
2018-02-15T10:01:15.428Z,15.47
2018-02-15T10:03:41.758Z,15.20
2018-02-15T10:06:08.653Z,14.93
2018-02-15T10:08:35.015Z,14.37
2018-02-15T10:11:01.366Z,14.27
2018-02-15T10:13:27.739Z,13.83
2018-02-15T10:15:54.114Z,14.27
2018-02-15T10:18:20.456Z,12.57
2018-02-15T10:20:46.853Z,16.47
2018-02-15T10:23:13.202Z,14.77
2018-02-15T10:25:39.632Z,14.07
2018-02-15T10:28:06.051Z,14.27
2018-02-15T10:30:32.401Z,12.13
2018-02-15T10:32:58.741Z,12.70
2018-02-15T10:35:25.382Z,12.57
2018-02-15T10:37:51.712Z,12.87
2018-02-15T10:40:18.085Z,13.57
2018-02-15T10:42:44.509Z,13.80
2018-02-15T10:45:10.853Z,12.50
2018-02-15T10:47:37.228Z,14.20
2018-02-15T10:50:03.605Z,13.23
2018-02-15T10:52:30.222Z,13.43
2018-02-15T10:54:56.562Z,13.10
2018-02-15T10:57:23.101Z,14.07
2018-02-15T10:59:49.448Z,14.07
2018-02-15T11:02:21.897Z,15.47
2018-02-15T11:04:54.376Z,13.73
2018-02-15T11:07:20.726Z,13.10
2018-02-15T11:09:47.085Z,14.07
2018-02-15T11:12:13.445Z,12.70
2018-02-15T11:14:39.878Z,12.67
2018-02-15T11:17:06.272Z,12.10
2018-02-15T11:19:32.641Z,12.20
2018-02-15T11:21:59.204Z,12.70
2018-02-15T11:24:25.588Z,14.37
2018-02-15T11:26:52.193Z,10.60
2018-02-15T11:29:18.801Z,12.50
2018-02-15T11:31:45.176Z,11.87
2018-02-15T11:34:11.546Z,11.10
2018-02-15T11:36:38.009Z,12.37
2018-02-15T11:39:04.473Z,12.00
2018-02-15T11:41:30.822Z,12.20
2018-02-15T11:43:57.299Z,13.83
2018-02-15T11:46:23.831Z,11.33
2018-02-15T11:48:50.245Z,10.20
2018-02-15T11:51:16.837Z,11.97
2018-02-15T11:53:43.505Z,14.40
2018-02-15T11:56:09.933Z,12.17
2018-02-15T11:58:36.390Z,15.00
2018-02-15T12:01:02.785Z,15.00
2018-02-15T12:03:29.245Z,14.93
2018-02-15T12:05:55.749Z,13.23
2018-02-15T12:08:22.133Z,10.83
2018-02-15T12:10:48.485Z,11.20
2018-02-15T12:13:14.825Z,11.70
2018-02-15T12:15:41.166Z,11.57
2018-02-15T12:18:07.657Z,12.40
2018-02-15T12:20:34.016Z,12.30
2018-02-15T12:23:00.369Z,11.03
2018-02-15T12:25:26.722Z,12.67
2018-02-15T12:27:53.137Z,12.17
2018-02-15T12:30:19.501Z,11.73
2018-02-15T12:32:45.839Z,12.17
2018-02-15T12:35:12.192Z,12.97
2018-02-15T12:37:38.785Z,10.97
2018-02-15T12:40:05.289Z,11.10
2018-02-15T12:42:31.652Z,12.07
2018-02-15T12:44:58.068Z,11.40
2018-02-15T12:47:24.523Z,11.07
2018-02-15T12:49:50.937Z,10.77
2018-02-15T12:52:17.458Z,11.73
2018-02-15T12:54:43.866Z,12.70
2018-02-15T12:57:10.250Z,9.90
2018-02-15T12:59:36.867Z,9.03
2018-02-15T13:02:03.681Z,9.77
2018-02-15T13:04:30.289Z,10.30
2018-02-15T13:06:56.625Z,11.00
2018-02-15T13:09:22.985Z,10.77
2018-02-15T13:11:49.433Z,9.50
2018-02-15T13:14:15.847Z,9.30
2018-02-15T13:16:54.421Z,10.57
2018-02-15T13:19:33.913Z,14.47
2018-02-15T13:22:00.309Z,11.93
2018-02-15T13:24:26.714Z,11.47
2018-02-15T13:26:53.147Z,12.93
2018-02-15T13:29:19.618Z,11.93
2018-02-15T13:31:46.021Z,11.07
2018-02-15T13:34:12.437Z,12.53
2018-02-15T13:36:38.961Z,13.17
2018-02-15T13:39:05.575Z,12.03
2018-02-15T13:41:33.058Z,11.53
2018-02-15T13:43:59.624Z,13.20
2018-02-15T13:46:26.038Z,11.13
2018-02-15T13:48:52.432Z,12.67
2018-02-15T13:51:18.899Z,12.43
2018-02-15T13:53:45.335Z,12.13
2018-02-15T13:56:11.741Z,11.60
2018-02-15T13:58:38.282Z,11.10
2018-02-15T14:01:04.765Z,10.70
2018-02-15T14:03:32.093Z,11.43
2018-02-15T14:05:58.566Z,16.37
2018-02-15T14:08:25.081Z,18.13
2018-02-15T14:10:51.508Z,21.43
2018-02-15T14:13:18.012Z,22.97
2018-02-15T14:15:44.346Z,19.50
2018-02-15T14:18:10.756Z,13.27
2018-02-15T14:20:37.363Z,14.70
2018-02-15T14:23:03.830Z,14.63
2018-02-15T14:25:30.245Z,14.37
2018-02-15T14:27:56.784Z,13.93
2018-02-15T14:30:23.285Z,14.77
2018-02-15T14:32:51.345Z,17.57
2018-02-15T14:35:18.836Z,12.30
2018-02-15T14:37:45.352Z,15.23
2018-02-15T14:40:11.749Z,15.80
2018-02-15T14:42:38.302Z,15.33
2018-02-15T14:45:04.848Z,15.67
2018-02-15T14:47:31.300Z,18.60
2018-02-15T14:49:57.664Z,18.20
2018-02-15T14:52:24.046Z,18.00
2018-02-15T14:54:50.566Z,18.00
2018-02-15T14:57:17.249Z,22.37
2018-02-15T14:59:43.682Z,21.53
2018-02-15T15:02:10.021Z,21.43
2018-02-15T15:04:36.368Z,22.03
2018-02-15T15:07:02.865Z,21.73
2018-02-15T15:09:29.221Z,19.77
2018-02-15T15:11:55.861Z,22.53
2018-02-15T15:14:22.264Z,25.90
2018-02-15T15:16:48.680Z,21.07
2018-02-15T15:19:15.057Z,21.00
2018-02-15T15:21:41.457Z,18.87
2018-02-15T15:24:07.898Z,23.20
2018-02-15T15:26:34.353Z,23.17
2018-02-15T15:29:00.886Z,23.47
2018-02-15T15:31:27.236Z,21.63
2018-02-15T15:33:54.245Z,22.23
2018-02-15T15:36:20.683Z,24.53
2018-02-15T15:38:47.083Z,22.67
2018-02-15T15:41:13.545Z,20.73
2018-02-15T15:43:46.894Z,22.80
2018-02-15T15:46:13.273Z,25.37
2018-02-15T15:48:39.637Z,23.87
2018-02-15T15:51:06.035Z,25.57
2018-02-15T15:53:32.458Z,26.17
2018-02-15T15:55:58.794Z,27.90
2018-02-15T15:58:25.272Z,24.50
2018-02-15T16:00:51.605Z,26.57
2018-02-15T16:03:18.026Z,26.37
2018-02-15T16:05:44.517Z,23.47
2018-02-15T16:08:10.913Z,23.13
2018-02-15T16:10:37.321Z,27.83
2018-02-15T16:13:03.753Z,27.17
2018-02-15T16:15:35.744Z,26.57
2018-02-15T16:18:02.221Z,27.27
2018-02-15T16:20:28.600Z,29.40
2018-02-15T16:22:54.930Z,29.50
2018-02-15T16:25:21.294Z,30.70
2018-02-15T16:27:47.677Z,32.43
2018-02-15T16:30:14.205Z,30.80
2018-02-15T16:32:40.605Z,36.10
2018-02-15T16:35:06.950Z,33.23
2018-02-15T16:37:33.379Z,31.47
2018-02-15T16:39:59.769Z,30.77
2018-02-15T16:42:26.101Z,37.47
2018-02-15T16:44:52.544Z,32.70
2018-02-15T16:47:18.883Z,29.43
2018-02-15T16:49:45.270Z,26.77
2018-02-15T16:52:11.741Z,24.23
2018-02-15T16:54:38.082Z,25.90
2018-02-15T16:57:04.448Z,26.43
2018-02-15T16:59:30.898Z,28.27
2018-02-15T17:01:57.249Z,24.93
2018-02-15T17:04:32.675Z,24.03
2018-02-15T17:06:59.148Z,24.60
2018-02-15T17:09:25.642Z,23.00
2018-02-15T17:11:52.048Z,21.83
2018-02-15T17:14:18.448Z,22.70
2018-02-15T17:16:44.847Z,23.57
2018-02-15T17:19:11.318Z,22.73
2018-02-15T17:21:37.737Z,25.10
2018-02-15T17:24:04.093Z,25.53
2018-02-15T17:26:30.499Z,21.83
2018-02-15T17:28:56.941Z,19.50
2018-02-15T17:31:23.395Z,20.37
2018-02-15T17:33:49.831Z,20.10
2018-02-15T17:36:16.375Z,23.53
2018-02-15T17:38:42.847Z,21.93
2018-02-15T17:41:09.279Z,21.07
2018-02-15T17:43:35.760Z,25.10
2018-02-15T17:46:02.199Z,23.40
2018-02-15T17:48:28.596Z,20.13
2018-02-15T17:50:55.006Z,21.43
2018-02-15T17:53:21.485Z,21.53
2018-02-15T17:55:47.997Z,21.47
2018-02-15T17:58:15.774Z,20.20
2018-02-15T18:00:42.519Z,19.23
2018-02-15T18:03:09.119Z,22.13
2018-02-15T18:05:36.141Z,21.70
2018-02-15T18:08:03.372Z,21.53
2018-02-15T18:10:31.693Z,25.70
2018-02-15T18:12:58.132Z,26.10
2018-02-15T18:15:24.525Z,20.30
2018-02-15T18:17:51.324Z,17.83
2018-02-15T18:20:17.805Z,17.30
2018-02-15T18:22:44.310Z,16.80
2018-02-15T18:25:11.496Z,16.53
2018-02-15T18:27:39.353Z,17.50
2018-02-15T18:30:06.521Z,17.57
2018-02-15T18:32:32.889Z,19.07
2018-02-15T18:34:59.375Z,21.07
2018-02-15T18:37:25.840Z,20.03
2018-02-15T18:39:52.280Z,21.23
2018-02-15T18:42:18.808Z,21.10
2018-02-15T18:44:45.238Z,20.43
2018-02-15T18:47:11.629Z,22.70
2018-02-15T18:49:38.290Z,37.57
2018-02-15T18:52:04.772Z,25.93
2018-02-15T18:54:31.206Z,24.40
2018-02-15T18:56:57.625Z,26.53
2018-02-15T18:59:24.150Z,29.03
2018-02-15T19:01:50.838Z,36.53
2018-02-15T19:04:19.184Z,48.80
2018-02-15T19:06:45.853Z,47.33
2018-02-15T19:09:13.034Z,34.50
2018-02-15T19:11:39.421Z,32.93
2018-02-15T19:14:05.806Z,29.13
2018-02-15T19:16:33.021Z,27.30
2018-02-15T19:18:59.427Z,22.47
2018-02-15T19:21:25.873Z,22.87
2018-02-15T19:23:52.559Z,21.20
2018-02-15T19:26:19.113Z,21.83
2018-02-15T19:28:45.513Z,19.40
2018-02-15T19:31:11.933Z,18.07
2018-02-15T19:33:38.329Z,15.57
2018-02-15T19:36:04.697Z,16.27
2018-02-15T19:38:31.128Z,14.13
2018-02-15T19:40:57.610Z,14.67
2018-02-15T19:43:23.973Z,16.33
2018-02-15T19:45:50.419Z,15.97
2018-02-15T19:48:16.831Z,16.87
2018-02-15T19:50:43.263Z,17.60
2018-02-15T19:53:09.666Z,21.77
2018-02-15T19:55:36.056Z,27.37
2018-02-15T19:58:04.028Z,28.20
2018-02-15T20:00:30.447Z,29.10
2018-02-15T20:02:57.098Z,31.47
2018-02-15T20:05:23.485Z,29.90
2018-02-15T20:07:49.850Z,27.03
2018-02-15T20:10:16.417Z,23.73
2018-02-15T20:12:42.814Z,24.80
2018-02-15T20:15:09.199Z,25.80
2018-02-15T20:17:35.621Z,24.33
2018-02-15T20:20:08.068Z,27.20
2018-02-15T20:22:35.128Z,27.17
2018-02-15T20:25:01.927Z,28.43
2018-02-15T20:27:34.457Z,28.50
2018-02-15T20:30:00.913Z,27.77
2018-02-15T20:32:27.403Z,26.50
2018-02-15T20:34:53.838Z,26.37
2018-02-15T20:37:20.323Z,25.03
2018-02-15T20:39:52.815Z,24.10
2018-02-15T20:42:19.153Z,25.93
2018-02-15T20:44:45.714Z,25.90
2018-02-15T20:47:12.189Z,29.80
2018-02-15T20:49:44.591Z,34.87
2018-02-15T20:52:17.269Z,33.23
2018-02-15T20:54:49.805Z,30.00
2018-02-15T20:57:16.204Z,29.77
2018-02-15T20:59:42.697Z,28.93
2018-02-15T21:02:09.229Z,28.30
2018-02-15T21:04:35.672Z,27.57
2018-02-15T21:07:03.207Z,26.07
2018-02-15T21:09:29.597Z,28.80
2018-02-15T21:11:55.994Z,27.40
2018-02-15T21:14:22.381Z,28.50
2018-02-15T21:16:48.827Z,29.90
2018-02-15T21:19:15.211Z,31.07
2018-02-15T21:21:41.555Z,31.97
2018-02-15T21:24:08.014Z,31.37
2018-02-15T21:26:34.508Z,21.83
2018-02-15T21:29:01.394Z,20.07
2018-02-15T21:31:27.812Z,18.03
2018-02-15T21:33:54.913Z,17.87
2018-02-15T21:36:21.306Z,18.27
2018-02-15T21:38:47.757Z,18.03
2018-02-15T21:41:14.325Z,19.23
2018-02-15T21:43:40.756Z,20.50
2018-02-15T21:46:07.113Z,19.97
2018-02-15T21:48:33.550Z,19.97
2018-02-15T21:50:59.978Z,17.90
2018-02-15T21:53:26.355Z,17.83
2018-02-15T21:55:52.795Z,18.00
2018-02-15T21:58:19.247Z,17.57
2018-02-15T22:00:45.612Z,18.23
2018-02-15T22:03:12.081Z,17.80
2018-02-15T22:05:38.521Z,21.03
2018-02-15T22:08:04.972Z,21.97
2018-02-15T22:10:31.435Z,22.03
2018-02-15T22:12:57.811Z,25.07
2018-02-15T22:15:24.234Z,24.83
2018-02-15T22:17:50.654Z,21.60
2018-02-15T22:20:17.038Z,21.60
2018-02-15T22:22:43.433Z,21.90
2018-02-15T22:25:09.936Z,23.90
2018-02-15T22:27:36.449Z,27.60
2018-02-15T22:30:02.926Z,23.10
2018-02-15T22:32:29.357Z,22.57
2018-02-15T22:34:55.709Z,20.30
2018-02-15T22:37:22.078Z,19.37
2018-02-15T22:39:48.455Z,19.67
2018-02-15T22:42:14.921Z,19.13
2018-02-15T22:44:41.381Z,16.80
2018-02-15T22:47:07.785Z,18.63
2018-02-15T22:49:34.162Z,16.80
2018-02-15T22:52:00.554Z,18.53
2018-02-15T22:54:27.005Z,18.03
2018-02-15T22:56:53.363Z,19.37
2018-02-15T22:59:19.777Z,19.90
2018-02-15T23:01:46.224Z,21.57
2018-02-15T23:04:12.649Z,18.33
2018-02-15T23:06:39.015Z,18.70
2018-02-15T23:09:05.401Z,19.87
2018-02-15T23:11:31.797Z,18.43
2018-02-15T23:13:58.179Z,21.20
2018-02-15T23:16:24.781Z,21.50
2018-02-15T23:18:51.189Z,23.00
2018-02-15T23:21:17.537Z,24.50
2018-02-15T23:23:43.948Z,22.70
2018-02-15T23:26:10.273Z,23.90
2018-02-15T23:28:36.605Z,22.27
2018-02-15T23:31:02.993Z,22.80
2018-02-15T23:33:29.453Z,22.90
2018-02-15T23:35:55.917Z,23.43
2018-02-15T23:38:22.277Z,21.83
2018-02-15T23:40:48.668Z,21.03
2018-02-15T23:43:15.034Z,17.37
2018-02-15T23:45:41.353Z,16.40
2018-02-15T23:48:07.782Z,17.77
2018-02-15T23:50:34.201Z,17.60
2018-02-15T23:53:00.541Z,18.63
2018-02-15T23:55:26.917Z,18.00
2018-02-15T23:57:53.318Z,18.53
